CET,Max TemperatureF,Mean TemperatureF,Min TemperatureF,Max Dew PointF,MeanDew PointF,Min DewpointF,Max Humidity, Mean Humidity, Min Humidity, Max Sea Level PressureIn, Mean Sea Level PressureIn, Min Sea Level PressureIn, Max VisibilityMiles, Mean VisibilityMiles, Min VisibilityMiles, Max Wind SpeedMPH, Mean Wind SpeedMPH, Max Gust SpeedMPH,PrecipitationIn, CloudCover, Events, WindDirDegrees
2012-10-1,73,66,59,63,55,48,94,73,57,30.15,30.08,30.04,6,6,3,9,5,,0.00,6,Rain-Thunderstorm,63
2012-10-2,75,67,59,66,61,59,100,91,57,30.06,30.01,29.95,6,4,1,13,3,34,0.00,6,Rain-Thunderstorm,10
2012-10-3,69,60,50,59,51,45,100,76,40,30.06,30.04,30.01,6,3,2,16,9,27,0.00,5,,271
2012-10-4,71,58,44,55,50,45,100,80,43,30.06,30.03,29.98,6,4,2,4,3,,0.00,4,Fog-Rain-Thunderstorm,325
2012-10-5,68,60,50,54,43,25,88,60,21,30.18,30.12,30.01,6,4,2,11,6,22,0.00,6,,271
2012-10-6,75,60,44,52,47,41,100,66,34,30.15,30.08,30.01,3,2,2,7,3,,0.00,,Fog,180
2012-10-7,71,60,48,61,55,43,100,82,60,30.01,29.88,29.74,6,5,3,31,6,52,0.00,6,Fog-Rain-Thunderstorm,240
2012-10-8,59,50,41,43,39,34,93,69,41,30.15,30.08,29.98,6,6,1,20,14,29,0.00,2,,299
2012-10-9,62,48,33,43,37,32,100,69,34,30.06,29.93,29.86,6,4,2,11,3,22,0.00,4,Fog-Rain,200
2012-10-10,59,50,42,48,40,30,100,68,34,29.95,29.92,29.86,6,6,2,9,4,,0.00,6,Fog-Rain,297
2012-10-11,59,49,39,48,39,30,100,74,36,30.01,29.98,29.95,6,5,2,13,7,27,0.00,2,,291
2012-10-12,60,51,42,43,41,37,93,68,42,29.98,29.96,29.95,5,4,3,11,4,,0.00,8,Rain,58
2012-10-13,64,54,44,48,44,41,94,72,48,30.04,29.97,29.92,6,5,4,7,3,,0.00,7,Rain,335
2012-10-14,59,54,50,55,53,48,100,94,82,29.89,29.85,29.83,5,3,0,7,3,,0.00,8,Fog-Rain,121
2012-10-15,69,63,57,59,57,54,100,88,60,29.83,29.80,29.77,6,3,0,11,6,,0.00,8,Fog-Rain,139
2012-10-16,68,57,46,61,54,43,100,91,78,30.04,29.82,29.74,6,5,2,18,8,29,0.00,7,Rain,172
2012-10-17,64,54,44,48,44,41,100,76,42,30.21,30.15,30.04,6,5,1,9,6,,0.00,4,Fog,210
2012-10-18,68,57,44,48,43,36,100,70,30,30.27,30.22,30.18,5,3,2,11,6,,0.00,3,,131
2012-10-19,73,57,41,54,46,39,100,78,38,30.21,30.16,30.12,5,4,2,7,2,,0.00,1,Fog,125
2012-10-20,73,57,41,55,48,41,100,87,44,30.15,30.12,30.09,6,2,0,4,2,,0.00,1,Fog,59
2012-10-21,69,56,44,50,47,45,100,82,43,30.18,30.16,30.12,5,2,0,9,3,,0.00,1,Fog,138
2012-10-22,68,52,37,54,46,37,100,88,46,30.21,30.19,30.15,5,1,0,4,1,,0.00,1,Fog,334
2012-10-23,66,52,39,54,47,39,100,92,56,30.21,30.19,30.18,5,1,0,4,2,,0.00,1,Fog,355
2012-10-24,59,49,39,48,44,39,100,88,59,30.18,30.12,30.06,6,3,0,7,3,,0.00,4,Fog,280
2012-10-25,50,49,48,48,48,46,100,96,87,30.06,29.97,29.89,2,1,1,7,3,,0.00,8,,279
2012-10-26,59,50,42,48,44,39,100,81,48,29.89,29.82,29.65,6,4,1,11,6,,0.00,5,Fog,221
2012-10-27,64,56,48,59,49,43,100,80,63,29.65,29.35,29.24,6,5,2,16,10,27,0.00,8,Rain,161
2012-10-28,48,42,35,48,38,34,100,94,87,29.83,29.57,29.30,6,5,2,18,13,27,0.00,7,Rain,320
2012-10-29,39,36,32,37,35,32,100,96,87,29.86,29.81,29.77,6,4,0,11,7,,0.00,8,Rain-Snow-Hail,319
2012-10-30,44,37,30,34,30,27,93,77,49,29.92,29.87,29.83,6,5,2,16,9,27,0.00,4,Fog,247
2012-10-31,48,39,30,37,33,28,100,84,58,29.98,29.94,29.86,6,4,2,13,8,,0.00,2,Fog,138